sensor_id;sensor_type;location;lat;lon;timestamp;P1;durP1;ratioP1;P2;durP2;ratioP2
49340;SDS011;35209;51.050;13.678;2024-03-25T00:04:31;1.40;;;0.98;;
49340;SDS011;35209;51.050;13.678;2024-03-25T00:09:32;1.67;;;1.13;;
49340;SDS011;35209;51.050;13.678;2024-03-25T00:14:33;1.30;;;1.02;;
49340;SDS011;35209;51.050;13.678;2024-03-25T00:19:34;1.30;;;1.00;;
49340;SDS011;35209;51.050;13.678;2024-03-25T00:24:35;1.85;;;1.05;;
49340;SDS011;35209;51.050;13.678;2024-03-25T00:29:35;1.00;;;0.90;;
49340;SDS011;35209;51.050;13.678;2024-03-25T00:34:36;1.02;;;0.80;;
49340;SDS011;35209;51.050;13.678;2024-03-25T00:39:37;0.98;;;0.88;;
49340;SDS011;35209;51.050;13.678;2024-03-25T00:44:38;1.55;;;1.05;;
49340;SDS011;35209;51.050;13.678;2024-03-25T00:49:39;1.10;;;1.00;;
49340;SDS011;35209;51.050;13.678;2024-03-25T00:54:40;1.05;;;0.95;;
49340;SDS011;35209;51.050;13.678;2024-03-25T00:59:40;1.10;;;1.00;;
49340;SDS011;35209;51.050;13.678;2024-03-25T01:04:41;0.95;;;0.73;;
49340;SDS011;35209;51.050;13.678;2024-03-25T01:09:42;2.05;;;1.17;;
49340;SDS011;35209;51.050;13.678;2024-03-25T01:14:43;2.00;;;1.30;;
49340;SDS011;35209;51.050;13.678;2024-03-25T01:19:43;1.83;;;1.17;;
49340;SDS011;35209;51.050;13.678;2024-03-25T01:24:44;1.05;;;0.90;;
49340;SDS011;35209;51.050;13.678;2024-03-25T01:29:45;0.55;;;0.52;;
49340;SDS011;35209;51.050;13.678;2024-03-25T01:34:46;0.60;;;0.60;;
49340;SDS011;35209;51.050;13.678;2024-03-25T01:39:47;1.33;;;0.47;;
49340;SDS011;35209;51.050;13.678;2024-03-25T01:44:47;0.80;;;0.50;;
49340;SDS011;35209;51.050;13.678;2024-03-25T01:49:49;0.85;;;0.65;;
49340;SDS011;35209;51.050;13.678;2024-03-25T01:54:53;0.80;;;0.75;;
49340;SDS011;35209;51.050;13.678;2024-03-25T01:59:55;1.25;;;0.88;;
49340;SDS011;35209;51.050;13.678;2024-03-25T02:04:57;0.90;;;0.88;;
49340;SDS011;35209;51.050;13.678;2024-03-25T02:09:58;0.80;;;0.80;;
49340;SDS011;35209;51.050;13.678;2024-03-25T02:14:59;1.27;;;1.17;;
49340;SDS011;35209;51.050;13.678;2024-03-25T02:20:00;2.00;;;1.60;;
49340;SDS011;35209;51.050;13.678;2024-03-25T02:25:11;2.17;;;1.92;;
49340;SDS011;35209;51.050;13.678;2024-03-25T02:30:13;1.60;;;1.50;;
49340;SDS011;35209;51.050;13.678;2024-03-25T02:35:15;1.70;;;1.50;;
49340;SDS011;35209;51.050;13.678;2024-03-25T02:40:17;1.92;;;1.60;;
49340;SDS011;35209;51.050;13.678;2024-03-25T02:45:19;1.90;;;1.70;;
49340;SDS011;35209;51.050;13.678;2024-03-25T02:50:19;3.10;;;1.65;;
49340;SDS011;35209;51.050;13.678;2024-03-25T03:01:43;1.98;;;1.40;;
49340;SDS011;35209;51.050;13.678;2024-03-25T03:06:43;1.75;;;1.60;;
49340;SDS011;35209;51.050;13.678;2024-03-25T03:11:44;1.63;;;1.48;;
49340;SDS011;35209;51.050;13.678;2024-03-25T03:16:45;3.15;;;1.85;;
49340;SDS011;35209;51.050;13.678;2024-03-25T03:21:46;2.22;;;1.75;;
49340;SDS011;35209;51.050;13.678;2024-03-25T03:26:46;2.17;;;1.45;;
49340;SDS011;35209;51.050;13.678;2024-03-25T03:31:47;1.35;;;1.20;;
49340;SDS011;35209;51.050;13.678;2024-03-25T03:36:48;1.63;;;1.52;;
49340;SDS011;35209;51.050;13.678;2024-03-25T03:41:49;2.10;;;1.80;;
49340;SDS011;35209;51.050;13.678;2024-03-25T03:46:49;3.95;;;1.40;;
49340;SDS011;35209;51.050;13.678;2024-03-25T03:51:50;3.03;;;1.83;;
49340;SDS011;35209;51.050;13.678;2024-03-25T03:56:51;1.33;;;1.20;;
49340;SDS011;35209;51.050;13.678;2024-03-25T04:01:52;3.05;;;1.50;;
49340;SDS011;35209;51.050;13.678;2024-03-25T04:06:53;2.53;;;1.77;;
49340;SDS011;35209;51.050;13.678;2024-03-25T04:11:54;1.55;;;1.30;;
49340;SDS011;35209;51.050;13.678;2024-03-25T04:16:55;1.83;;;1.63;;
49340;SDS011;35209;51.050;13.678;2024-03-25T04:21:56;1.92;;;1.73;;
49340;SDS011;35209;51.050;13.678;2024-03-25T04:26:57;1.23;;;1.13;;
49340;SDS011;35209;51.050;13.678;2024-03-25T04:31:58;2.28;;;1.30;;
49340;SDS011;35209;51.050;13.678;2024-03-25T04:36:59;1.90;;;1.70;;
49340;SDS011;35209;51.050;13.678;2024-03-25T04:42:00;2.67;;;2.47;;
49340;SDS011;35209;51.050;13.678;2024-03-25T04:47:01;3.08;;;1.60;;
49340;SDS011;35209;51.050;13.678;2024-03-25T04:52:02;1.42;;;1.33;;
49340;SDS011;35209;51.050;13.678;2024-03-25T04:57:03;1.42;;;1.30;;
49340;SDS011;35209;51.050;13.678;2024-03-25T05:02:07;1.85;;;1.30;;
49340;SDS011;35209;51.050;13.678;2024-03-25T05:07:08;1.45;;;1.05;;
49340;SDS011;35209;51.050;13.678;2024-03-25T05:12:11;3.30;;;1.13;;
49340;SDS011;35209;51.050;13.678;2024-03-25T05:17:11;3.63;;;1.13;;
49340;SDS011;35209;51.050;13.678;2024-03-25T05:22:12;2.00;;;1.30;;
49340;SDS011;35209;51.050;13.678;2024-03-25T05:27:13;2.05;;;1.30;;
49340;SDS011;35209;51.050;13.678;2024-03-25T05:32:14;2.30;;;2.10;;
49340;SDS011;35209;51.050;13.678;2024-03-25T05:37:17;2.15;;;1.70;;
49340;SDS011;35209;51.050;13.678;2024-03-25T05:42:17;3.53;;;1.45;;
49340;SDS011;35209;51.050;13.678;2024-03-25T05:47:18;2.33;;;1.30;;
49340;SDS011;35209;51.050;13.678;2024-03-25T05:52:19;2.58;;;1.10;;
49340;SDS011;35209;51.050;13.678;2024-03-25T05:57:20;1.02;;;0.93;;
49340;SDS011;35209;51.050;13.678;2024-03-25T06:02:21;1.13;;;1.02;;
49340;SDS011;35209;51.050;13.678;2024-03-25T06:07:22;1.70;;;1.60;;
49340;SDS011;35209;51.050;13.678;2024-03-25T06:12:23;1.92;;;1.40;;
49340;SDS011;35209;51.050;13.678;2024-03-25T06:17:24;2.17;;;1.90;;
49340;SDS011;35209;51.050;13.678;2024-03-25T06:22:24;5.00;;;2.15;;
49340;SDS011;35209;51.050;13.678;2024-03-25T06:27:26;2.20;;;1.70;;
49340;SDS011;35209;51.050;13.678;2024-03-25T06:32:28;2.13;;;1.38;;
49340;SDS011;35209;51.050;13.678;2024-03-25T06:37:53;2.08;;;1.17;;
49340;SDS011;35209;51.050;13.678;2024-03-25T06:42:54;1.95;;;1.13;;
49340;SDS011;35209;51.050;13.678;2024-03-25T06:47:55;0.88;;;0.80;;
49340;SDS011;35209;51.050;13.678;2024-03-25T06:52:57;2.15;;;0.77;;
49340;SDS011;35209;51.050;13.678;2024-03-25T06:57:58;2.05;;;1.05;;
49340;SDS011;35209;51.050;13.678;2024-03-25T07:02:59;0.77;;;0.75;;
49340;SDS011;35209;51.050;13.678;2024-03-25T07:08:01;2.40;;;1.08;;
49340;SDS011;35209;51.050;13.678;2024-03-25T07:13:03;2.17;;;0.98;;
49340;SDS011;35209;51.050;13.678;2024-03-25T07:18:04;1.98;;;1.13;;
49340;SDS011;35209;51.050;13.678;2024-03-25T07:23:05;1.88;;;1.08;;
49340;SDS011;35209;51.050;13.678;2024-03-25T07:28:06;2.65;;;0.85;;
49340;SDS011;35209;51.050;13.678;2024-03-25T07:33:07;1.98;;;1.08;;
49340;SDS011;35209;51.050;13.678;2024-03-25T07:38:08;1.55;;;0.80;;
49340;SDS011;35209;51.050;13.678;2024-03-25T07:43:09;1.58;;;1.20;;
49340;SDS011;35209;51.050;13.678;2024-03-25T07:48:10;2.05;;;1.05;;
49340;SDS011;35209;51.050;13.678;2024-03-25T07:53:11;1.63;;;0.68;;
49340;SDS011;35209;51.050;13.678;2024-03-25T07:58:12;1.33;;;0.82;;
49340;SDS011;35209;51.050;13.678;2024-03-25T08:03:13;1.52;;;0.70;;
49340;SDS011;35209;51.050;13.678;2024-03-25T08:08:14;1.92;;;1.05;;
49340;SDS011;35209;51.050;13.678;2024-03-25T08:13:14;2.38;;;1.58;;
49340;SDS011;35209;51.050;13.678;2024-03-25T08:18:15;1.88;;;1.00;;
49340;SDS011;35209;51.050;13.678;2024-03-25T08:23:16;4.00;;;1.80;;
49340;SDS011;35209;51.050;13.678;2024-03-25T08:28:17;2.05;;;1.05;;
49340;SDS011;35209;51.050;13.678;2024-03-25T08:33:18;2.80;;;1.52;;
49340;SDS011;35209;51.050;13.678;2024-03-25T08:38:19;1.58;;;1.20;;
49340;SDS011;35209;51.050;13.678;2024-03-25T08:43:19;5.85;;;3.75;;
49340;SDS011;35209;51.050;13.678;2024-03-25T08:48:20;3.92;;;2.95;;
49340;SDS011;35209;51.050;13.678;2024-03-25T08:53:21;2.72;;;1.23;;
49340;SDS011;35209;51.050;13.678;2024-03-25T08:58:22;2.08;;;1.20;;
49340;SDS011;35209;51.050;13.678;2024-03-25T09:03:23;1.67;;;1.05;;
49340;SDS011;35209;51.050;13.678;2024-03-25T09:08:24;1.92;;;1.02;;
49340;SDS011;35209;51.050;13.678;2024-03-25T09:13:25;1.88;;;1.65;;
49340;SDS011;35209;51.050;13.678;2024-03-25T09:18:26;2.83;;;1.25;;
49340;SDS011;35209;51.050;13.678;2024-03-25T09:23:27;2.80;;;0.90;;
49340;SDS011;35209;51.050;13.678;2024-03-25T09:28:28;1.30;;;0.80;;
49340;SDS011;35209;51.050;13.678;2024-03-25T09:33:29;0.80;;;0.77;;
49340;SDS011;35209;51.050;13.678;2024-03-25T09:38:30;1.00;;;0.68;;
49340;SDS011;35209;51.050;13.678;2024-03-25T09:43:32;0.70;;;0.70;;
49340;SDS011;35209;51.050;13.678;2024-03-25T09:48:40;2.83;;;1.10;;
49340;SDS011;35209;51.050;13.678;2024-03-25T09:53:42;1.58;;;1.00;;
49340;SDS011;35209;51.050;13.678;2024-03-25T09:58:43;1.10;;;1.00;;
49340;SDS011;35209;51.050;13.678;2024-03-25T10:03:44;1.20;;;0.90;;
49340;SDS011;35209;51.050;13.678;2024-03-25T10:08:45;1.13;;;1.02;;
49340;SDS011;35209;51.050;13.678;2024-03-25T10:13:46;1.25;;;0.98;;
49340;SDS011;35209;51.050;13.678;2024-03-25T10:18:48;1.42;;;0.98;;
49340;SDS011;35209;51.050;13.678;2024-03-25T10:23:49;1.35;;;0.80;;
49340;SDS011;35209;51.050;13.678;2024-03-25T10:28:58;1.88;;;1.00;;
49340;SDS011;35209;51.050;13.678;2024-03-25T10:34:00;2.72;;;0.85;;
49340;SDS011;35209;51.050;13.678;2024-03-25T10:39:02;0.65;;;0.65;;
49340;SDS011;35209;51.050;13.678;2024-03-25T10:44:07;0.88;;;0.73;;
49340;SDS011;35209;51.050;13.678;2024-03-25T10:49:32;1.58;;;0.90;;
49340;SDS011;35209;51.050;13.678;2024-03-25T10:54:35;1.88;;;0.90;;
49340;SDS011;35209;51.050;13.678;2024-03-25T10:59:37;1.50;;;0.73;;
49340;SDS011;35209;51.050;13.678;2024-03-25T11:04:41;0.85;;;0.82;;
49340;SDS011;35209;51.050;13.678;2024-03-25T11:09:44;0.88;;;0.73;;
49340;SDS011;35209;51.050;13.678;2024-03-25T11:14:44;0.70;;;0.70;;
49340;SDS011;35209;51.050;13.678;2024-03-25T11:19:45;2.15;;;1.20;;
49340;SDS011;35209;51.050;13.678;2024-03-25T11:24:46;1.67;;;1.10;;
49340;SDS011;35209;51.050;13.678;2024-03-25T11:29:48;4.32;;;1.08;;
49340;SDS011;35209;51.050;13.678;2024-03-25T11:34:52;1.02;;;0.75;;
49340;SDS011;35209;51.050;13.678;2024-03-25T11:40:00;0.78;;;0.68;;
49340;SDS011;35209;51.050;13.678;2024-03-25T11:45:05;1.35;;;0.70;;
49340;SDS011;35209;51.050;13.678;2024-03-25T11:50:07;1.27;;;0.90;;
49340;SDS011;35209;51.050;13.678;2024-03-25T11:55:10;2.08;;;0.82;;
49340;SDS011;35209;51.050;13.678;2024-03-25T12:00:12;0.80;;;0.60;;
49340;SDS011;35209;51.050;13.678;2024-03-25T12:05:16;4.80;;;3.25;;
49340;SDS011;35209;51.050;13.678;2024-03-25T12:10:17;2.65;;;2.13;;
49340;SDS011;35209;51.050;13.678;2024-03-25T12:15:36;1.90;;;1.20;;
49340;SDS011;35209;51.050;13.678;2024-03-25T12:20:37;1.10;;;1.00;;
49340;SDS011;35209;51.050;13.678;2024-03-25T12:25:39;1.00;;;0.75;;
49340;SDS011;35209;51.050;13.678;2024-03-25T12:30:54;1.83;;;1.73;;
49340;SDS011;35209;51.050;13.678;2024-03-25T12:35:58;0.90;;;0.90;;
49340;SDS011;35209;51.050;13.678;2024-03-25T12:46:07;1.25;;;1.08;;
49340;SDS011;35209;51.050;13.678;2024-03-25T12:51:13;0.68;;;0.60;;
49340;SDS011;35209;51.050;13.678;2024-03-25T12:56:15;1.02;;;0.60;;
49340;SDS011;35209;51.050;13.678;2024-03-25T13:01:15;0.95;;;0.60;;
49340;SDS011;35209;51.050;13.678;2024-03-25T13:06:16;1.40;;;0.82;;
49340;SDS011;35209;51.050;13.678;2024-03-25T13:11:17;0.80;;;0.80;;
49340;SDS011;35209;51.050;13.678;2024-03-25T13:16:18;0.73;;;0.73;;
49340;SDS011;35209;51.050;13.678;2024-03-25T13:21:19;1.48;;;0.50;;
49340;SDS011;35209;51.050;13.678;2024-03-25T13:26:20;1.05;;;0.65;;
49340;SDS011;35209;51.050;13.678;2024-03-25T13:31:21;1.58;;;0.50;;
49340;SDS011;35209;51.050;13.678;2024-03-25T13:36:21;1.70;;;0.90;;
49340;SDS011;35209;51.050;13.678;2024-03-25T13:41:22;0.93;;;0.90;;
49340;SDS011;35209;51.050;13.678;2024-03-25T13:46:24;1.67;;;0.50;;
49340;SDS011;35209;51.050;13.678;2024-03-25T13:51:25;1.08;;;0.90;;
49340;SDS011;35209;51.050;13.678;2024-03-25T13:56:25;2.15;;;0.65;;
49340;SDS011;35209;51.050;13.678;2024-03-25T14:01:26;0.63;;;0.50;;
49340;SDS011;35209;51.050;13.678;2024-03-25T14:06:27;1.55;;;0.85;;
49340;SDS011;35209;51.050;13.678;2024-03-25T14:11:28;1.02;;;0.70;;
49340;SDS011;35209;51.050;13.678;2024-03-25T14:16:29;1.58;;;0.70;;
49340;SDS011;35209;51.050;13.678;2024-03-25T14:21:29;1.67;;;0.60;;
49340;SDS011;35209;51.050;13.678;2024-03-25T14:26:30;1.40;;;0.60;;
49340;SDS011;35209;51.050;13.678;2024-03-25T14:31:31;0.93;;;0.60;;
49340;SDS011;35209;51.050;13.678;2024-03-25T14:36:32;1.98;;;0.90;;
49340;SDS011;35209;51.050;13.678;2024-03-25T14:41:39;1.45;;;0.75;;
49340;SDS011;35209;51.050;13.678;2024-03-25T14:46:40;9.95;;;5.72;;
49340;SDS011;35209;51.050;13.678;2024-03-25T14:51:41;1.90;;;1.30;;
49340;SDS011;35209;51.050;13.678;2024-03-25T14:56:42;0.60;;;0.60;;
49340;SDS011;35209;51.050;13.678;2024-03-25T15:01:43;1.63;;;0.70;;
49340;SDS011;35209;51.050;13.678;2024-03-25T15:06:44;1.35;;;0.70;;
49340;SDS011;35209;51.050;13.678;2024-03-25T15:11:45;0.98;;;0.68;;
49340;SDS011;35209;51.050;13.678;2024-03-25T15:16:46;2.97;;;0.95;;
49340;SDS011;35209;51.050;13.678;2024-03-25T15:21:47;1.65;;;0.90;;
49340;SDS011;35209;51.050;13.678;2024-03-25T15:26:47;0.80;;;0.65;;
49340;SDS011;35209;51.050;13.678;2024-03-25T15:31:48;1.15;;;0.50;;
49340;SDS011;35209;51.050;13.678;2024-03-25T15:36:49;1.02;;;0.57;;
49340;SDS011;35209;51.050;13.678;2024-03-25T15:41:50;1.67;;;0.68;;
49340;SDS011;35209;51.050;13.678;2024-03-25T15:46:51;1.38;;;0.70;;
49340;SDS011;35209;51.050;13.678;2024-03-25T15:51:51;1.67;;;1.15;;
49340;SDS011;35209;51.050;13.678;2024-03-25T15:56:52;0.80;;;0.70;;
49340;SDS011;35209;51.050;13.678;2024-03-25T16:01:53;1.30;;;0.63;;
49340;SDS011;35209;51.050;13.678;2024-03-25T16:06:54;0.88;;;0.75;;
49340;SDS011;35209;51.050;13.678;2024-03-25T16:11:54;1.35;;;0.70;;
49340;SDS011;35209;51.050;13.678;2024-03-25T16:16:55;6.93;;;0.80;;
49340;SDS011;35209;51.050;13.678;2024-03-25T16:21:56;0.70;;;0.50;;
49340;SDS011;35209;51.050;13.678;2024-03-25T16:26:57;0.77;;;0.52;;
49340;SDS011;35209;51.050;13.678;2024-03-25T16:31:58;1.25;;;0.70;;
49340;SDS011;35209;51.050;13.678;2024-03-25T16:36:59;1.15;;;0.90;;
49340;SDS011;35209;51.050;13.678;2024-03-25T16:42:00;0.50;;;0.50;;
49340;SDS011;35209;51.050;13.678;2024-03-25T16:47:01;1.00;;;0.70;;
49340;SDS011;35209;51.050;13.678;2024-03-25T16:52:02;1.52;;;0.60;;
49340;SDS011;35209;51.050;13.678;2024-03-25T16:57:03;1.38;;;0.60;;
49340;SDS011;35209;51.050;13.678;2024-03-25T17:02:04;1.13;;;0.77;;
49340;SDS011;35209;51.050;13.678;2024-03-25T17:07:05;1.65;;;0.85;;
49340;SDS011;35209;51.050;13.678;2024-03-25T17:12:06;0.80;;;0.70;;
49340;SDS011;35209;51.050;13.678;2024-03-25T17:17:07;1.70;;;0.88;;
49340;SDS011;35209;51.050;13.678;2024-03-25T17:22:08;1.65;;;0.90;;
49340;SDS011;35209;51.050;13.678;2024-03-25T17:27:09;1.70;;;1.20;;
49340;SDS011;35209;51.050;13.678;2024-03-25T17:32:09;4.20;;;2.53;;
49340;SDS011;35209;51.050;13.678;2024-03-25T17:37:10;1.80;;;1.35;;
49340;SDS011;35209;51.050;13.678;2024-03-25T17:42:11;3.10;;;1.58;;
49340;SDS011;35209;51.050;13.678;2024-03-25T17:47:13;2.67;;;1.10;;
49340;SDS011;35209;51.050;13.678;2024-03-25T17:52:14;2.67;;;1.42;;
49340;SDS011;35209;51.050;13.678;2024-03-25T17:57:15;11.90;;;6.22;;
49340;SDS011;35209;51.050;13.678;2024-03-25T18:02:18;2.22;;;1.75;;
49340;SDS011;35209;51.050;13.678;2024-03-25T18:07:19;4.78;;;2.20;;
49340;SDS011;35209;51.050;13.678;2024-03-25T18:12:20;8.45;;;4.13;;
49340;SDS011;35209;51.050;13.678;2024-03-25T18:17:21;3.58;;;1.98;;
49340;SDS011;35209;51.050;13.678;2024-03-25T18:22:21;4.28;;;2.72;;
49340;SDS011;35209;51.050;13.678;2024-03-25T18:27:22;16.20;;;8.48;;
49340;SDS011;35209;51.050;13.678;2024-03-25T18:32:23;5.50;;;4.47;;
49340;SDS011;35209;51.050;13.678;2024-03-25T18:37:24;10.63;;;5.93;;
49340;SDS011;35209;51.050;13.678;2024-03-25T18:42:25;19.33;;;8.48;;
49340;SDS011;35209;51.050;13.678;2024-03-25T18:47:26;17.80;;;10.27;;
49340;SDS011;35209;51.050;13.678;2024-03-25T18:52:27;59.35;;;29.48;;
49340;SDS011;35209;51.050;13.678;2024-03-25T18:57:28;20.63;;;10.50;;
49340;SDS011;35209;51.050;13.678;2024-03-25T19:02:29;5.80;;;4.20;;
49340;SDS011;35209;51.050;13.678;2024-03-25T19:07:30;4.82;;;4.10;;
49340;SDS011;35209;51.050;13.678;2024-03-25T19:12:31;6.22;;;4.32;;
49340;SDS011;35209;51.050;13.678;2024-03-25T19:17:32;7.18;;;5.63;;
49340;SDS011;35209;51.050;13.678;2024-03-25T19:22:33;9.25;;;8.35;;
49340;SDS011;35209;51.050;13.678;2024-03-25T19:27:34;9.73;;;7.00;;
49340;SDS011;35209;51.050;13.678;2024-03-25T19:32:35;9.07;;;6.47;;
49340;SDS011;35209;51.050;13.678;2024-03-25T19:37:35;9.05;;;7.75;;
49340;SDS011;35209;51.050;13.678;2024-03-25T19:42:36;8.73;;;7.20;;
49340;SDS011;35209;51.050;13.678;2024-03-25T19:47:39;9.65;;;8.68;;
49340;SDS011;35209;51.050;13.678;2024-03-25T19:52:40;10.45;;;9.32;;
49340;SDS011;35209;51.050;13.678;2024-03-25T19:57:40;7.90;;;7.13;;
49340;SDS011;35209;51.050;13.678;2024-03-25T20:02:42;8.43;;;5.13;;
49340;SDS011;35209;51.050;13.678;2024-03-25T20:07:43;6.07;;;5.30;;
49340;SDS011;35209;51.050;13.678;2024-03-25T20:12:43;6.55;;;4.25;;
49340;SDS011;35209;51.050;13.678;2024-03-25T20:17:44;5.13;;;3.80;;
49340;SDS011;35209;51.050;13.678;2024-03-25T20:22:46;5.28;;;4.68;;
49340;SDS011;35209;51.050;13.678;2024-03-25T20:27:46;4.60;;;3.88;;
49340;SDS011;35209;51.050;13.678;2024-03-25T20:32:47;5.40;;;4.43;;
49340;SDS011;35209;51.050;13.678;2024-03-25T20:37:48;9.10;;;4.13;;
49340;SDS011;35209;51.050;13.678;2024-03-25T20:42:49;4.50;;;3.88;;
49340;SDS011;35209;51.050;13.678;2024-03-25T20:47:50;4.97;;;3.53;;
49340;SDS011;35209;51.050;13.678;2024-03-25T20:52:50;4.45;;;3.75;;
49340;SDS011;35209;51.050;13.678;2024-03-25T20:57:51;4.70;;;3.65;;
49340;SDS011;35209;51.050;13.678;2024-03-25T21:02:52;6.40;;;4.03;;
49340;SDS011;35209;51.050;13.678;2024-03-25T21:07:53;5.25;;;3.78;;
49340;SDS011;35209;51.050;13.678;2024-03-25T21:12:54;5.93;;;4.40;;
49340;SDS011;35209;51.050;13.678;2024-03-25T21:17:55;9.50;;;4.22;;
49340;SDS011;35209;51.050;13.678;2024-03-25T21:22:55;6.18;;;4.00;;
49340;SDS011;35209;51.050;13.678;2024-03-25T21:27:56;6.82;;;5.13;;
49340;SDS011;35209;51.050;13.678;2024-03-25T21:32:57;5.93;;;4.57;;
49340;SDS011;35209;51.050;13.678;2024-03-25T21:37:58;5.43;;;4.18;;
49340;SDS011;35209;51.050;13.678;2024-03-25T21:42:59;4.97;;;3.75;;
49340;SDS011;35209;51.050;13.678;2024-03-25T21:47:59;5.90;;;4.00;;
49340;SDS011;35209;51.050;13.678;2024-03-25T21:53:00;6.15;;;3.92;;
49340;SDS011;35209;51.050;13.678;2024-03-25T21:58:02;4.70;;;3.47;;
49340;SDS011;35209;51.050;13.678;2024-03-25T22:03:03;6.22;;;4.15;;
49340;SDS011;35209;51.050;13.678;2024-03-25T22:08:04;4.20;;;3.80;;
49340;SDS011;35209;51.050;13.678;2024-03-25T22:13:05;4.80;;;3.72;;
49340;SDS011;35209;51.050;13.678;2024-03-25T22:18:06;4.95;;;3.13;;
49340;SDS011;35209;51.050;13.678;2024-03-25T22:23:07;4.68;;;4.28;;
49340;SDS011;35209;51.050;13.678;2024-03-25T22:28:07;4.82;;;3.45;;
49340;SDS011;35209;51.050;13.678;2024-03-25T22:33:08;4.32;;;3.70;;
49340;SDS011;35209;51.050;13.678;2024-03-25T22:38:09;5.20;;;4.07;;
49340;SDS011;35209;51.050;13.678;2024-03-25T22:43:10;3.10;;;2.80;;
49340;SDS011;35209;51.050;13.678;2024-03-25T22:48:11;5.28;;;3.42;;
49340;SDS011;35209;51.050;13.678;2024-03-25T22:53:11;4.55;;;2.90;;
49340;SDS011;35209;51.050;13.678;2024-03-25T22:58:12;4.30;;;2.97;;
49340;SDS011;35209;51.050;13.678;2024-03-25T23:03:13;3.60;;;2.80;;
49340;SDS011;35209;51.050;13.678;2024-03-25T23:08:14;3.65;;;2.70;;
49340;SDS011;35209;51.050;13.678;2024-03-25T23:13:14;3.80;;;2.83;;
49340;SDS011;35209;51.050;13.678;2024-03-25T23:18:16;2.58;;;2.38;;
49340;SDS011;35209;51.050;13.678;2024-03-25T23:23:17;3.97;;;3.00;;
49340;SDS011;35209;51.050;13.678;2024-03-25T23:28:18;4.45;;;3.15;;
49340;SDS011;35209;51.050;13.678;2024-03-25T23:33:19;4.32;;;2.92;;
49340;SDS011;35209;51.050;13.678;2024-03-25T23:38:20;5.10;;;3.15;;
49340;SDS011;35209;51.050;13.678;2024-03-25T23:43:21;4.80;;;3.20;;
49340;SDS011;35209;51.050;13.678;2024-03-25T23:48:22;3.95;;;3.13;;
49340;SDS011;35209;51.050;13.678;2024-03-25T23:53:22;6.25;;;3.60;;
49340;SDS011;35209;51.050;13.678;2024-03-25T23:58:23;3.17;;;2.88;;
